createdAt,value
2016-09-25T00:00:00.818Z,16.46
2016-09-25T00:00:22.559Z,16.44
2016-09-25T00:00:49.052Z,16.45
2016-09-25T00:01:10.787Z,16.40
2016-09-25T00:01:32.517Z,16.32
2016-09-25T00:01:54.291Z,16.37
2016-09-25T00:02:16.038Z,16.37
2016-09-25T00:02:37.768Z,16.37
2016-09-25T00:02:59.497Z,16.37
2016-09-25T00:03:21.238Z,16.28
2016-09-25T00:03:43.979Z,16.27
2016-09-25T00:04:05.750Z,16.44
2016-09-25T00:04:27.481Z,16.59
2016-09-25T00:04:49.219Z,16.68
2016-09-25T00:05:10.959Z,16.81
2016-09-25T00:05:32.723Z,16.89
2016-09-25T00:05:54.444Z,16.91
2016-09-25T00:06:16.435Z,16.82
2016-09-25T00:06:38.032Z,16.70
2016-09-25T00:06:59.821Z,16.54
2016-09-25T00:07:21.552Z,16.39
2016-09-25T00:07:43.308Z,16.33
2016-09-25T00:08:05.068Z,16.33
2016-09-25T00:08:26.802Z,16.30
2016-09-25T00:08:48.524Z,16.34
2016-09-25T00:09:11.257Z,16.33
2016-09-25T00:09:32.979Z,16.43
2016-09-25T00:09:54.722Z,16.49
2016-09-25T00:10:16.445Z,16.53
2016-09-25T00:10:38.226Z,16.54
2016-09-25T00:10:59.936Z,16.54
2016-09-25T00:11:21.648Z,16.48
2016-09-25T00:11:43.385Z,16.41
2016-09-25T00:12:05.110Z,16.40
2016-09-25T00:12:26.852Z,16.43
2016-09-25T00:12:57.935Z,16.49
2016-09-25T00:13:19.721Z,16.48
2016-09-25T00:13:41.453Z,16.51
2016-09-25T00:14:03.181Z,16.58
2016-09-25T00:14:25.017Z,16.60
2016-09-25T00:14:51.450Z,16.47
2016-09-25T00:15:13.183Z,16.42
2016-09-25T00:15:34.931Z,16.39
2016-09-25T00:15:56.656Z,16.44
2016-09-25T00:16:18.403Z,16.49
2016-09-25T00:16:40.157Z,16.49
2016-09-25T00:17:01.894Z,16.43
2016-09-25T00:17:23.641Z,16.39
2016-09-25T00:17:50.135Z,16.38
2016-09-25T00:18:11.888Z,16.38
2016-09-25T00:18:33.634Z,16.39
2016-09-25T00:18:55.375Z,16.38
2016-09-25T00:19:17.101Z,16.35
2016-09-25T00:19:43.597Z,16.33
2016-09-25T00:20:05.372Z,16.38
2016-09-25T00:20:27.126Z,16.46
2016-09-25T00:20:48.844Z,16.53
2016-09-25T00:21:10.576Z,16.52
2016-09-25T00:21:32.298Z,16.53
2016-09-25T00:22:03.381Z,16.57
2016-09-25T00:22:25.116Z,16.61
2016-09-25T00:22:46.864Z,16.54
2016-09-25T00:23:08.585Z,16.60
2016-09-25T00:23:30.304Z,16.65
2016-09-25T00:23:52.054Z,16.61
2016-09-25T00:24:13.769Z,16.55
2016-09-25T00:24:35.491Z,16.49
2016-09-25T00:24:57.228Z,16.44
2016-09-25T00:25:18.947Z,16.46
2016-09-25T00:25:42.675Z,16.52
2016-09-25T00:26:04.403Z,16.63
2016-09-25T00:26:30.909Z,16.71
2016-09-25T00:26:52.638Z,16.76
2016-09-25T00:27:14.361Z,16.81
2016-09-25T00:27:36.086Z,16.88
2016-09-25T00:27:57.808Z,16.80
2016-09-25T00:28:19.530Z,16.75
2016-09-25T00:28:41.270Z,16.61
2016-09-25T00:29:03.040Z,16.61
2016-09-25T00:29:24.774Z,16.60
2016-09-25T00:29:46.496Z,16.53
2016-09-25T00:30:08.221Z,16.53
2016-09-25T00:30:29.968Z,16.41
2016-09-25T00:30:51.689Z,16.42
2016-09-25T00:31:13.404Z,16.44
2016-09-25T00:31:35.136Z,16.43
2016-09-25T00:31:56.870Z,16.48
2016-09-25T00:32:18.601Z,16.57
2016-09-25T00:32:40.336Z,16.60
2016-09-25T00:33:02.048Z,16.65
2016-09-25T00:33:23.773Z,16.66
2016-09-25T00:33:45.506Z,16.52
2016-09-25T00:34:07.234Z,16.45
2016-09-25T00:34:28.957Z,16.38
2016-09-25T00:34:50.697Z,16.32
2016-09-25T00:35:20.162Z,16.30
2016-09-25T00:36:15.632Z,16.36
2016-09-25T00:36:37.372Z,16.37
2016-09-25T00:36:59.090Z,16.41
2016-09-25T00:37:20.844Z,16.41
2016-09-25T00:37:42.608Z,16.54
2016-09-25T00:38:04.320Z,16.57
2016-09-25T00:38:26.051Z,16.58
2016-09-25T00:38:47.791Z,16.52
2016-09-25T00:39:09.549Z,16.56
2016-09-25T00:39:31.274Z,16.63
2016-09-25T00:39:53.091Z,16.65
2016-09-25T00:40:14.937Z,16.68
2016-09-25T00:40:36.684Z,16.65
2016-09-25T00:40:58.448Z,16.58
2016-09-25T00:41:20.182Z,16.46
2016-09-25T00:41:41.922Z,16.36
2016-09-25T00:42:03.650Z,16.43
2016-09-25T00:42:25.395Z,16.42
2016-09-25T00:42:47.122Z,16.40
2016-09-25T00:43:08.868Z,16.39
2016-09-25T00:43:30.595Z,16.38
2016-09-25T00:43:52.316Z,16.36
2016-09-25T00:44:14.041Z,16.36
2016-09-25T00:44:40.525Z,16.36
2016-09-25T00:45:02.281Z,16.34
2016-09-25T00:45:24.024Z,16.32
2016-09-25T00:45:45.750Z,16.28
2016-09-25T00:46:07.488Z,16.23
2016-09-25T00:46:29.274Z,16.20
2016-09-25T00:46:51.069Z,16.15
2016-09-25T00:47:12.798Z,16.08
2016-09-25T00:47:34.517Z,16.07
2016-09-25T00:47:56.256Z,16.20
2016-09-25T00:48:17.983Z,16.26
2016-09-25T00:48:39.717Z,16.36
2016-09-25T00:49:01.481Z,16.43
2016-09-25T00:49:23.270Z,16.28
2016-09-25T00:49:45.034Z,16.24
2016-09-25T00:50:06.813Z,16.23
2016-09-25T00:50:28.527Z,16.35
2016-09-25T00:50:50.258Z,16.38
2016-09-25T00:51:12.003Z,16.40
2016-09-25T00:51:33.750Z,16.38
2016-09-25T00:51:55.487Z,16.31
2016-09-25T00:52:17.218Z,16.29
2016-09-25T00:52:39.005Z,16.27
2016-09-25T00:53:00.751Z,16.27
2016-09-25T00:53:22.470Z,16.26
2016-09-25T00:53:44.204Z,16.19
2016-09-25T00:54:05.942Z,16.09
2016-09-25T00:54:27.699Z,16.15
2016-09-25T00:54:49.420Z,16.22
2016-09-25T00:55:11.157Z,16.24
2016-09-25T00:55:32.892Z,16.20
2016-09-25T00:55:54.620Z,16.18
2016-09-25T00:56:16.364Z,16.17
2016-09-25T00:56:38.223Z,16.20
2016-09-25T00:56:59.961Z,16.22
2016-09-25T00:57:21.710Z,16.12
2016-09-25T00:57:43.442Z,16.07
2016-09-25T00:58:32.684Z,16.02
2016-09-25T00:58:54.424Z,15.93
2016-09-25T00:59:16.146Z,15.88
2016-09-25T00:59:37.891Z,15.88
2016-09-25T00:59:59.619Z,15.82
2016-09-25T01:00:21.343Z,15.80
2016-09-25T01:00:44.082Z,15.77
2016-09-25T01:01:05.808Z,15.69
2016-09-25T01:01:27.538Z,15.68
2016-09-25T01:01:49.266Z,15.64
2016-09-25T01:02:11.013Z,15.60
2016-09-25T01:02:32.790Z,15.60
2016-09-25T01:02:54.520Z,15.69
2016-09-25T01:03:16.290Z,15.75
2016-09-25T01:03:38.025Z,15.73
2016-09-25T01:04:04.547Z,15.87
2016-09-25T01:04:31.058Z,15.88
2016-09-25T01:04:52.796Z,15.90
2016-09-25T01:05:14.546Z,15.81
2016-09-25T01:05:36.308Z,15.74
2016-09-25T01:05:58.044Z,15.73
2016-09-25T01:06:25.570Z,15.74
2016-09-25T01:06:47.285Z,15.67
2016-09-25T01:07:09.068Z,15.68
2016-09-25T01:07:30.796Z,15.71
2016-09-25T01:07:52.524Z,15.78
2016-09-25T01:08:14.252Z,15.78
2016-09-25T01:09:03.509Z,15.71
2016-09-25T01:09:25.225Z,15.75
2016-09-25T01:09:46.988Z,15.80
2016-09-25T01:10:08.697Z,15.72
2016-09-25T01:10:30.447Z,15.79
2016-09-25T01:10:52.200Z,15.75
2016-09-25T01:11:13.934Z,15.85
2016-09-25T01:11:35.653Z,15.82
2016-09-25T01:11:57.403Z,15.82
2016-09-25T01:12:19.140Z,15.71
2016-09-25T01:12:40.879Z,15.59
2016-09-25T01:13:02.724Z,15.58
2016-09-25T01:13:24.450Z,15.65
2016-09-25T01:13:46.182Z,15.76
2016-09-25T01:14:07.903Z,15.80
2016-09-25T01:14:29.646Z,15.77
2016-09-25T01:14:51.365Z,15.76
2016-09-25T01:15:13.112Z,15.77
2016-09-25T01:15:35.851Z,15.69
2016-09-25T01:15:57.583Z,15.57
2016-09-25T01:16:19.315Z,15.49
2016-09-25T01:16:41.042Z,15.44
2016-09-25T01:17:02.763Z,15.51
2016-09-25T01:17:24.491Z,15.53
2016-09-25T01:17:46.235Z,15.58
2016-09-25T01:18:08.033Z,15.62
2016-09-25T01:18:30.764Z,15.71
2016-09-25T01:18:52.619Z,15.77
2016-09-25T01:19:14.354Z,15.85
2016-09-25T01:19:36.088Z,15.87
2016-09-25T01:19:57.858Z,15.85
2016-09-25T01:20:19.583Z,15.84
2016-09-25T01:20:41.317Z,15.76
2016-09-25T01:21:03.052Z,15.68
2016-09-25T01:21:24.789Z,15.76
2016-09-25T01:21:46.517Z,15.79
2016-09-25T01:22:08.245Z,15.83
2016-09-25T01:22:30.017Z,15.57
2016-09-25T01:22:51.748Z,15.29
2016-09-25T01:23:13.537Z,15.20
2016-09-25T01:23:35.252Z,15.06
2016-09-25T01:23:56.990Z,14.96
2016-09-25T01:24:18.718Z,14.83
2016-09-25T01:24:40.485Z,14.78
2016-09-25T01:25:02.207Z,14.69
2016-09-25T01:25:23.934Z,14.63
2016-09-25T01:25:45.652Z,14.55
2016-09-25T01:26:07.381Z,14.50
2016-09-25T01:26:29.112Z,14.53
2016-09-25T01:26:50.863Z,14.58
2016-09-25T01:27:12.584Z,14.79
2016-09-25T01:27:34.334Z,14.87
2016-09-25T01:27:56.059Z,15.08
2016-09-25T01:28:20.776Z,15.13
2016-09-25T01:28:42.338Z,14.98
2016-09-25T01:29:04.056Z,14.87
2016-09-25T01:29:25.943Z,14.89
2016-09-25T01:29:47.678Z,14.87
2016-09-25T01:30:09.400Z,14.93
2016-09-25T01:30:31.118Z,14.98
2016-09-25T01:30:52.865Z,15.06
2016-09-25T01:31:14.590Z,14.88
2016-09-25T01:31:36.338Z,14.85
2016-09-25T01:31:58.091Z,14.88
2016-09-25T01:32:46.315Z,15.06
2016-09-25T01:33:09.131Z,15.03
2016-09-25T01:33:30.852Z,15.12
2016-09-25T01:33:52.578Z,15.18
2016-09-25T01:34:14.315Z,15.17
2016-09-25T01:34:36.050Z,15.21
2016-09-25T01:34:57.771Z,15.24
2016-09-25T01:35:19.532Z,15.31
2016-09-25T01:35:41.252Z,15.20
2016-09-25T01:36:02.984Z,15.15
2016-09-25T01:36:28.549Z,14.98
2016-09-25T01:36:50.274Z,14.85
2016-09-25T01:37:12.040Z,14.81
2016-09-25T01:37:33.771Z,14.73
2016-09-25T01:37:55.485Z,14.73
2016-09-25T01:38:17.211Z,14.76
2016-09-25T01:38:39.925Z,14.82
2016-09-25T01:39:01.655Z,14.96
2016-09-25T01:39:23.384Z,15.00
2016-09-25T01:39:45.134Z,15.14
2016-09-25T01:40:11.643Z,15.16
2016-09-25T01:40:33.378Z,15.27
2016-09-25T01:40:55.108Z,15.37
2016-09-25T01:41:16.826Z,15.24
2016-09-25T01:41:41.102Z,15.07
2016-09-25T01:42:02.852Z,15.02
2016-09-25T01:42:24.567Z,15.00
2016-09-25T01:42:46.299Z,14.99
2016-09-25T01:43:08.016Z,14.91
2016-09-25T01:43:29.744Z,14.89
2016-09-25T01:43:51.486Z,14.90
2016-09-25T01:44:13.210Z,14.86
2016-09-25T01:44:34.945Z,14.86
2016-09-25T01:44:56.673Z,15.00
2016-09-25T01:45:18.389Z,15.09
2016-09-25T01:45:40.116Z,15.13
2016-09-25T01:46:01.844Z,14.95
2016-09-25T01:46:23.592Z,14.88
2016-09-25T01:46:45.336Z,14.79
2016-09-25T01:47:07.054Z,14.74
2016-09-25T01:47:28.782Z,14.80
2016-09-25T01:47:50.497Z,14.83
2016-09-25T01:48:12.274Z,14.84
2016-09-25T01:48:34.011Z,14.78
2016-09-25T01:48:55.741Z,14.90
2016-09-25T01:49:17.454Z,14.98
2016-09-25T01:49:39.246Z,15.02
2016-09-25T01:50:00.987Z,15.18
2016-09-25T01:50:22.723Z,15.15
2016-09-25T01:50:44.435Z,15.12
2016-09-25T01:51:09.073Z,15.10
2016-09-25T01:51:30.802Z,15.10
2016-09-25T01:51:52.535Z,15.18
2016-09-25T01:52:14.273Z,15.16
2016-09-25T01:52:36.010Z,15.12
2016-09-25T01:52:57.731Z,15.11
2016-09-25T01:53:19.476Z,15.09
2016-09-25T01:53:41.195Z,15.11
2016-09-25T01:54:02.932Z,15.14
2016-09-25T01:54:24.657Z,15.15
2016-09-25T01:54:46.404Z,15.21
2016-09-25T01:55:08.161Z,15.22
2016-09-25T01:55:29.880Z,15.29
2016-09-25T01:55:56.423Z,15.35
2016-09-25T01:56:18.170Z,15.26
2016-09-25T01:56:39.905Z,15.28
2016-09-25T01:57:28.138Z,15.36
2016-09-25T01:57:49.857Z,15.40
2016-09-25T01:58:11.584Z,15.33
2016-09-25T01:58:33.335Z,15.16
2016-09-25T01:58:55.066Z,15.00
2016-09-25T01:59:16.794Z,14.89
2016-09-25T01:59:38.503Z,14.67
2016-09-25T02:00:00.241Z,14.51
2016-09-25T02:00:22.017Z,14.35
2016-09-25T02:00:43.742Z,14.35
2016-09-25T02:01:05.472Z,14.47
2016-09-25T02:01:27.212Z,14.51
2016-09-25T02:01:48.971Z,14.56
2016-09-25T02:02:10.779Z,14.44
2016-09-25T02:02:37.264Z,14.31
2016-09-25T02:02:58.995Z,14.41
2016-09-25T02:03:20.772Z,14.56
2016-09-25T02:03:42.526Z,14.59
2016-09-25T02:04:04.266Z,14.64
2016-09-25T02:04:26.027Z,14.62
2016-09-25T02:04:47.801Z,14.59
2016-09-25T02:05:09.591Z,14.43
2016-09-25T02:05:31.335Z,14.36
2016-09-25T02:05:53.072Z,14.38
2016-09-25T02:06:14.797Z,14.36
2016-09-25T02:06:36.528Z,14.33
2016-09-25T02:06:58.251Z,14.35
2016-09-25T02:07:20.007Z,14.40
2016-09-25T02:07:41.802Z,14.40
2016-09-25T02:08:03.629Z,14.37
2016-09-25T02:08:25.389Z,14.41
2016-09-25T02:08:47.195Z,14.42
2016-09-25T02:09:08.916Z,14.48
2016-09-25T02:09:30.663Z,14.59
2016-09-25T02:09:52.408Z,14.52
2016-09-25T02:10:15.156Z,14.61
2016-09-25T02:10:36.900Z,14.42
2016-09-25T02:10:58.627Z,14.30
2016-09-25T02:11:20.355Z,14.16
2016-09-25T02:11:42.084Z,14.12
2016-09-25T02:12:03.818Z,14.27
2016-09-25T02:12:25.569Z,14.43
2016-09-25T02:12:47.300Z,14.49
2016-09-25T02:13:09.025Z,14.48
2016-09-25T02:13:30.757Z,14.46
2016-09-25T02:13:52.554Z,14.46
2016-09-25T02:14:14.307Z,14.48
2016-09-25T02:14:36.039Z,14.43
2016-09-25T02:14:57.777Z,14.36
2016-09-25T02:15:19.502Z,14.37
2016-09-25T02:15:41.229Z,14.57
2016-09-25T02:16:02.968Z,14.77
2016-09-25T02:16:24.701Z,14.74
2016-09-25T02:16:46.500Z,14.68
2016-09-25T02:17:08.247Z,14.77
2016-09-25T02:17:29.972Z,14.83
2016-09-25T02:17:51.706Z,14.80
2016-09-25T02:18:13.430Z,14.88
2016-09-25T02:18:39.924Z,14.81
2016-09-25T02:19:01.655Z,14.54
2016-09-25T02:19:23.421Z,14.29
2016-09-25T02:19:45.215Z,14.35
2016-09-25T02:20:06.962Z,14.47
2016-09-25T02:20:28.695Z,14.59
2016-09-25T02:20:50.474Z,14.65
2016-09-25T02:21:12.201Z,14.57
2016-09-25T02:21:33.930Z,14.46
2016-09-25T02:21:55.661Z,14.36
2016-09-25T02:22:17.389Z,14.25
2016-09-25T02:22:39.124Z,14.23
2016-09-25T02:23:00.861Z,14.24
2016-09-25T02:23:22.634Z,14.27
2016-09-25T02:23:44.454Z,14.32
2016-09-25T02:24:06.176Z,14.36
2016-09-25T02:24:27.924Z,14.48
2016-09-25T02:24:49.648Z,14.50
2016-09-25T02:25:11.392Z,14.57
2016-09-25T02:25:33.177Z,14.72
2016-09-25T02:25:57.783Z,14.61
2016-09-25T02:26:19.533Z,14.50
2016-09-25T02:26:41.300Z,14.46
2016-09-25T02:27:03.041Z,14.51
2016-09-25T02:27:24.810Z,14.47
2016-09-25T02:27:46.551Z,14.41
2016-09-25T02:28:08.294Z,14.28
2016-09-25T02:28:30.017Z,14.21
2016-09-25T02:28:51.782Z,14.26
2016-09-25T02:29:13.524Z,14.32
2016-09-25T02:29:35.277Z,14.53
2016-09-25T02:29:57.050Z,14.67
2016-09-25T02:30:18.817Z,14.61
2016-09-25T02:30:40.564Z,14.51
2016-09-25T02:31:02.346Z,14.46
2016-09-25T02:31:24.109Z,14.46
2016-09-25T02:31:45.834Z,14.49
2016-09-25T02:32:08.561Z,14.52
2016-09-25T02:32:30.308Z,14.49
2016-09-25T02:32:52.067Z,14.49
2016-09-25T02:33:13.782Z,14.40
2016-09-25T02:33:35.505Z,14.29
2016-09-25T02:33:57.271Z,14.36
2016-09-25T02:34:19.005Z,14.43
2016-09-25T02:34:40.733Z,14.58
2016-09-25T02:35:02.682Z,14.72
2016-09-25T02:35:24.429Z,14.83
2016-09-25T02:35:46.167Z,14.87
2016-09-25T02:36:07.923Z,14.90
2016-09-25T02:36:29.687Z,14.86
2016-09-25T02:36:51.469Z,14.85
2016-09-25T02:37:13.207Z,14.78
2016-09-25T02:37:34.932Z,14.61
2016-09-25T02:37:56.649Z,14.56
2016-09-25T02:38:18.419Z,14.55
2016-09-25T02:38:40.150Z,14.50
2016-09-25T02:39:01.885Z,14.50
2016-09-25T02:39:23.678Z,14.58
2016-09-25T02:39:45.391Z,14.59
2016-09-25T02:40:07.127Z,14.62
2016-09-25T02:40:28.852Z,14.74
2016-09-25T02:40:50.597Z,14.74
2016-09-25T02:41:12.320Z,14.72
2016-09-25T02:41:35.049Z,14.63
2016-09-25T02:41:57.770Z,14.55
2016-09-25T02:42:19.495Z,14.50
2016-09-25T02:42:41.296Z,14.43
2016-09-25T02:43:03.059Z,14.27
2016-09-25T02:43:24.806Z,14.27
2016-09-25T02:43:46.544Z,14.23
2016-09-25T02:44:08.301Z,14.15
2016-09-25T02:44:30.017Z,14.15
2016-09-25T02:44:51.737Z,14.18
2016-09-25T02:45:13.472Z,14.26
2016-09-25T02:45:35.229Z,14.43
2016-09-25T02:45:56.999Z,14.52
2016-09-25T02:46:18.721Z,14.51
2016-09-25T02:46:40.461Z,14.49
2016-09-25T02:47:02.220Z,14.39
2016-09-25T02:47:23.988Z,14.33
2016-09-25T02:47:45.757Z,14.28
2016-09-25T02:48:07.462Z,14.32
2016-09-25T02:48:29.207Z,14.42
2016-09-25T02:48:50.935Z,14.50
2016-09-25T02:49:12.650Z,14.50
2016-09-25T02:49:34.429Z,14.39
2016-09-25T02:49:56.162Z,14.28
2016-09-25T02:50:17.876Z,14.23
2016-09-25T02:50:39.642Z,14.23
2016-09-25T02:51:01.379Z,13.99
2016-09-25T02:51:23.124Z,13.93
2016-09-25T02:51:44.844Z,13.90
2016-09-25T02:52:06.586Z,13.92
2016-09-25T02:52:28.340Z,13.95
2016-09-25T02:52:50.122Z,13.93
2016-09-25T02:53:11.846Z,13.87
2016-09-25T02:53:33.581Z,13.87
2016-09-25T02:53:55.319Z,13.85
2016-09-25T02:54:17.079Z,13.79
2016-09-25T02:54:43.574Z,13.76
2016-09-25T02:55:05.300Z,13.73
2016-09-25T02:55:27.018Z,13.75
2016-09-25T02:55:48.739Z,13.69
2016-09-25T02:56:10.470Z,13.65
2016-09-25T02:56:32.211Z,13.61
2016-09-25T02:56:53.946Z,13.69
2016-09-25T02:57:15.677Z,13.84
2016-09-25T02:57:37.385Z,13.91
2016-09-25T02:57:59.133Z,13.92
2016-09-25T02:58:20.870Z,14.08
2016-09-25T02:58:42.605Z,14.18
2016-09-25T02:59:04.327Z,14.08
2016-09-25T02:59:26.084Z,14.04
2016-09-25T02:59:47.833Z,13.92
2016-09-25T03:00:09.543Z,13.86
2016-09-25T03:00:31.290Z,13.81
2016-09-25T03:00:53.021Z,13.77
2016-09-25T03:01:14.769Z,13.75
2016-09-25T03:01:36.505Z,13.77
2016-09-25T03:01:58.241Z,13.82
2016-09-25T03:02:19.991Z,13.86
2016-09-25T03:02:41.712Z,13.85
2016-09-25T03:03:03.439Z,13.70
2016-09-25T03:03:25.191Z,13.53
2016-09-25T03:03:46.950Z,13.49
2016-09-25T03:04:08.682Z,13.53
2016-09-25T03:04:30.426Z,13.65
2016-09-25T03:04:52.195Z,13.74
2016-09-25T03:05:13.943Z,13.80
2016-09-25T03:05:35.680Z,13.80
2016-09-25T03:05:57.408Z,13.87
2016-09-25T03:06:19.212Z,13.95
2016-09-25T03:06:40.995Z,14.00
2016-09-25T03:07:02.768Z,14.01
2016-09-25T03:07:24.521Z,14.17
2016-09-25T03:07:46.262Z,14.27
2016-09-25T03:08:07.984Z,14.27
2016-09-25T03:08:29.727Z,14.23
2016-09-25T03:08:52.456Z,14.06
2016-09-25T03:09:14.183Z,14.13
2016-09-25T03:09:35.911Z,14.25
2016-09-25T03:09:57.635Z,14.23
2016-09-25T03:10:19.366Z,14.19
2016-09-25T03:10:41.098Z,14.16
2016-09-25T03:11:05.754Z,14.05
2016-09-25T03:11:27.498Z,13.95
2016-09-25T03:11:49.238Z,13.92
2016-09-25T03:12:11.972Z,13.95
2016-09-25T03:12:33.786Z,14.05
2016-09-25T03:12:56.506Z,14.01
2016-09-25T03:13:18.317Z,13.94
2016-09-25T03:13:40.057Z,13.96
2016-09-25T03:14:01.786Z,14.03
2016-09-25T03:14:23.536Z,14.06
2016-09-25T03:14:45.291Z,14.00
2016-09-25T03:15:07.033Z,13.93
2016-09-25T03:15:28.796Z,13.89
2016-09-25T03:15:50.569Z,13.92
2016-09-25T03:16:12.301Z,14.05
2016-09-25T03:16:34.035Z,14.06
2016-09-25T03:16:55.782Z,14.09
2016-09-25T03:17:17.501Z,14.18
2016-09-25T03:17:39.229Z,14.21
2016-09-25T03:18:00.947Z,14.17
2016-09-25T03:18:22.675Z,14.18
2016-09-25T03:18:44.428Z,13.99
2016-09-25T03:19:06.186Z,13.82
2016-09-25T03:19:27.917Z,13.73
2016-09-25T03:19:49.648Z,13.72
2016-09-25T03:20:11.369Z,13.73
2016-09-25T03:20:33.100Z,13.67
2016-09-25T03:20:54.826Z,13.53
2016-09-25T03:21:16.550Z,13.39
2016-09-25T03:21:38.307Z,13.33
2016-09-25T03:22:00.019Z,13.19
2016-09-25T03:22:21.744Z,13.10
2016-09-25T03:22:43.469Z,13.22
2016-09-25T03:23:05.332Z,13.46
2016-09-25T03:23:27.043Z,13.56
2016-09-25T03:23:48.794Z,13.46
2016-09-25T03:24:10.531Z,13.44
2016-09-25T03:24:32.253Z,13.43
2016-09-25T03:24:53.975Z,13.47
2016-09-25T03:25:15.696Z,13.53
2016-09-25T03:25:37.453Z,13.62
2016-09-25T03:25:59.197Z,13.72
2016-09-25T03:26:20.912Z,13.78
2016-09-25T03:26:42.682Z,13.84
2016-09-25T03:27:04.426Z,13.87
2016-09-25T03:27:26.153Z,13.90
2016-09-25T03:27:47.897Z,13.88
2016-09-25T03:28:09.639Z,13.85
2016-09-25T03:28:31.359Z,13.73
2016-09-25T03:28:53.081Z,13.74
2016-09-25T03:29:14.819Z,13.77
2016-09-25T03:29:36.534Z,13.74
2016-09-25T03:29:58.263Z,13.75
2016-09-25T03:30:19.984Z,13.74
2016-09-25T03:30:41.712Z,13.74
2016-09-25T03:31:03.436Z,13.76
2016-09-25T03:31:25.216Z,13.85
2016-09-25T03:31:46.964Z,13.89
2016-09-25T03:32:08.685Z,13.98
2016-09-25T03:32:30.431Z,14.01
2016-09-25T03:32:52.153Z,14.12
2016-09-25T03:33:13.929Z,14.16
2016-09-25T03:33:35.647Z,14.22
2016-09-25T03:33:57.376Z,14.24
2016-09-25T03:34:19.101Z,14.29
2016-09-25T03:34:40.823Z,14.37
2016-09-25T03:35:02.739Z,14.18
2016-09-25T03:35:24.460Z,14.01
2016-09-25T03:35:46.192Z,13.97
2016-09-25T03:36:07.929Z,13.93
2016-09-25T03:36:29.701Z,13.85
2016-09-25T03:36:56.188Z,13.82
2016-09-25T03:37:17.933Z,13.74
2016-09-25T03:38:06.208Z,13.98
2016-09-25T03:38:27.946Z,13.89
2016-09-25T03:38:49.689Z,13.70
2016-09-25T03:39:11.410Z,13.58
2016-09-25T03:39:33.178Z,13.61
2016-09-25T03:39:54.928Z,13.64
2016-09-25T03:40:16.697Z,13.64
2016-09-25T03:40:38.468Z,13.58
2016-09-25T03:41:00.207Z,13.52
2016-09-25T03:41:21.942Z,13.60
2016-09-25T03:41:43.677Z,13.74
2016-09-25T03:42:05.421Z,13.71
2016-09-25T03:42:27.158Z,13.69
2016-09-25T03:42:48.879Z,13.74
2016-09-25T03:43:10.617Z,13.77
2016-09-25T03:43:32.342Z,13.80
2016-09-25T03:43:54.073Z,13.78
2016-09-25T03:44:15.804Z,13.82
2016-09-25T03:44:42.303Z,13.84
2016-09-25T03:45:04.035Z,13.88
2016-09-25T03:45:25.791Z,13.96
2016-09-25T03:45:47.750Z,14.12
2016-09-25T03:46:09.481Z,14.04
2016-09-25T03:46:31.344Z,13.99
2016-09-25T03:46:57.843Z,13.96
2016-09-25T03:47:19.613Z,13.88
2016-09-25T03:47:41.392Z,13.83
2016-09-25T03:48:03.123Z,13.77
2016-09-25T03:48:24.847Z,13.71
2016-09-25T03:48:47.576Z,13.69
2016-09-25T03:49:09.320Z,13.67
2016-09-25T03:49:31.043Z,13.72
2016-09-25T03:49:52.748Z,13.85
2016-09-25T03:50:14.473Z,13.89
2016-09-25T03:50:36.220Z,14.06
2016-09-25T03:50:57.977Z,14.17
2016-09-25T03:51:19.711Z,14.13
2016-09-25T03:51:41.421Z,14.03
2016-09-25T03:52:03.148Z,14.02
2016-09-25T03:52:24.876Z,14.10
2016-09-25T03:52:46.645Z,14.09
2016-09-25T03:53:08.358Z,14.01
2016-09-25T03:53:30.087Z,14.00
2016-09-25T03:53:51.803Z,14.02
2016-09-25T03:54:13.516Z,13.95
2016-09-25T03:55:01.763Z,13.88
2016-09-25T03:55:23.491Z,13.83
2016-09-25T03:55:45.235Z,13.80
2016-09-25T03:56:06.959Z,13.66
2016-09-25T03:56:28.716Z,13.62
2016-09-25T03:56:50.440Z,13.70
2016-09-25T03:57:12.162Z,13.82
2016-09-25T03:57:33.883Z,13.95
2016-09-25T03:58:02.380Z,13.95
2016-09-25T03:58:28.876Z,14.02
2016-09-25T03:58:50.601Z,14.10
2016-09-25T03:59:12.332Z,14.12
2016-09-25T03:59:34.053Z,14.16
2016-09-25T03:59:55.785Z,14.18
2016-09-25T04:00:17.506Z,14.14
2016-09-25T04:00:39.235Z,14.05
2016-09-25T04:01:01.022Z,14.03
2016-09-25T04:01:22.757Z,14.00
2016-09-25T04:01:44.469Z,13.79
2016-09-25T04:02:06.196Z,13.60
2016-09-25T04:02:27.938Z,13.45
2016-09-25T04:02:49.672Z,13.33
2016-09-25T04:03:11.416Z,13.27
2016-09-25T04:03:33.153Z,13.33
2016-09-25T04:03:54.875Z,13.38
2016-09-25T04:04:16.649Z,13.35
2016-09-25T04:04:38.376Z,13.23
2016-09-25T04:05:00.117Z,13.13
2016-09-25T04:05:21.842Z,13.04
2016-09-25T04:05:43.567Z,12.98
2016-09-25T04:06:05.294Z,12.95
2016-09-25T04:06:27.080Z,13.00
2016-09-25T04:06:48.850Z,13.09
2016-09-25T04:07:10.589Z,13.26
2016-09-25T04:07:32.351Z,13.37
2016-09-25T04:07:54.069Z,13.28
2016-09-25T04:08:15.794Z,13.16
2016-09-25T04:08:37.506Z,13.14
2016-09-25T04:08:59.237Z,13.15
2016-09-25T04:09:20.974Z,13.26
2016-09-25T04:09:42.721Z,13.49
2016-09-25T04:10:04.445Z,13.56
2016-09-25T04:10:26.184Z,13.64
2016-09-25T04:10:48.933Z,13.55
2016-09-25T04:11:10.660Z,13.43
2016-09-25T04:11:32.405Z,13.32
2016-09-25T04:11:54.167Z,13.28
2016-09-25T04:12:15.908Z,13.27
2016-09-25T04:12:37.646Z,13.29
2016-09-25T04:12:59.396Z,13.33
2016-09-25T04:13:25.886Z,13.39
2016-09-25T04:13:47.621Z,13.46
2016-09-25T04:14:19.701Z,13.55
2016-09-25T04:14:41.422Z,13.56
2016-09-25T04:15:03.151Z,13.52
2016-09-25T04:15:24.856Z,13.52
2016-09-25T04:15:46.574Z,13.46
2016-09-25T04:16:08.300Z,13.47
2016-09-25T04:16:30.036Z,13.42
2016-09-25T04:16:51.783Z,13.53
2016-09-25T04:17:13.550Z,13.71
2016-09-25T04:17:35.291Z,13.84
2016-09-25T04:17:57.032Z,13.95
2016-09-25T04:18:18.766Z,13.83
2016-09-25T04:18:40.490Z,13.69
2016-09-25T04:19:02.220Z,13.64
2016-09-25T04:19:23.947Z,13.57
2016-09-25T04:19:45.672Z,13.57
2016-09-25T04:20:07.391Z,13.58
2016-09-25T04:20:29.115Z,13.56
2016-09-25T04:20:50.884Z,13.52
2016-09-25T04:21:12.609Z,13.43
2016-09-25T04:21:34.334Z,13.36
2016-09-25T04:21:57.052Z,13.40
2016-09-25T04:22:18.799Z,13.59
2016-09-25T04:22:40.542Z,13.47
2016-09-25T04:23:02.293Z,13.30
2016-09-25T04:23:24.040Z,13.17
2016-09-25T04:23:45.781Z,13.12
2016-09-25T04:24:07.496Z,13.00
2016-09-25T04:24:29.231Z,13.00
2016-09-25T04:24:50.974Z,12.99
2016-09-25T04:25:12.725Z,13.08
2016-09-25T04:25:34.456Z,13.15
2016-09-25T04:25:56.181Z,13.17
2016-09-25T04:26:17.931Z,13.16
2016-09-25T04:26:39.662Z,13.12
2016-09-25T04:27:01.405Z,13.16
2016-09-25T04:27:23.138Z,13.13
2016-09-25T04:27:44.857Z,13.26
2016-09-25T04:28:06.574Z,13.41
2016-09-25T04:28:28.293Z,13.46
2016-09-25T04:28:50.018Z,13.54
2016-09-25T04:29:12.745Z,13.66
2016-09-25T04:29:34.488Z,13.62
2016-09-25T04:29:56.216Z,13.53
2016-09-25T04:30:17.954Z,13.51
2016-09-25T04:30:39.682Z,13.40
2016-09-25T04:31:01.417Z,13.37
2016-09-25T04:31:23.125Z,13.34
2016-09-25T04:31:44.943Z,13.34
2016-09-25T04:32:06.674Z,13.34
2016-09-25T04:32:28.428Z,13.38
2016-09-25T04:32:54.908Z,13.43
2016-09-25T04:33:16.635Z,13.43
2016-09-25T04:33:38.396Z,13.40
2016-09-25T04:34:00.149Z,13.38
2016-09-25T04:34:26.703Z,13.38
2016-09-25T04:34:48.435Z,13.42
2016-09-25T04:35:10.191Z,13.31
2016-09-25T04:35:36.686Z,13.29
2016-09-25T04:36:03.176Z,13.36
2016-09-25T04:36:24.896Z,13.22
2016-09-25T04:36:46.632Z,13.18
2016-09-25T04:37:08.358Z,13.13
2016-09-25T04:37:30.089Z,13.18
2016-09-25T04:37:54.344Z,13.22
2016-09-25T04:38:16.073Z,13.18
2016-09-25T04:38:37.801Z,13.21
2016-09-25T04:39:00.499Z,13.25
2016-09-25T04:39:22.255Z,13.27
2016-09-25T04:39:43.999Z,13.27
2016-09-25T04:40:05.833Z,13.33
2016-09-25T04:40:27.599Z,13.35
2016-09-25T04:40:49.343Z,13.36
2016-09-25T04:41:11.090Z,13.34
2016-09-25T04:41:32.816Z,13.29
2016-09-25T04:41:54.537Z,13.30
2016-09-25T04:42:16.281Z,13.27
2016-09-25T04:42:38.035Z,13.22
2016-09-25T04:42:59.753Z,13.23
2016-09-25T04:43:21.520Z,13.20
2016-09-25T04:43:43.254Z,13.21
2016-09-25T04:44:09.763Z,13.19
2016-09-25T04:44:31.481Z,13.11
2016-09-25T04:44:53.222Z,13.00
2016-09-25T04:45:14.979Z,12.88
2016-09-25T04:45:36.745Z,12.83
2016-09-25T04:45:58.489Z,12.74
2016-09-25T04:46:20.226Z,12.74